• Join FlightAware (Why Join?)
  • Login
  • US Flag 
09:27AM EDT


 

Airport Tracker/Info


-or-


 

Live Flight TrackerFlight Track Log ✈ CPA879 ✈ 26-Apr-2013 ✈ KSFO - VHHH / HKG

Flight Track Log - Related Links

Times and Time Zones

All times are in EDT time to prevent confusion due to time zone crossing. See the CPA879 flight status page for this flight to view local times or setup timezone preferences in your user account.

Time Position Orientation Groundspeed Altitude Reporting Facility
EDT Latitude Longitude Course Direction KTS MPH feet Rate Location/Type
05:04PM 37.6314 -122.4017 296° West 164 189 30,000  Level Oakland Center
05:05PM 37.6533 -122.4594 296° West 186 214 2,300 -2,700 Descending Oakland Center
05:12PM 37.6760 -123.1080 296° West 371 427 10,800 1,200 Climbing FlightAware
05:12PM 37.6810 -123.1820 275° West 371 427 10,800  Level FlightAware
05:13PM 37.6860 -123.2550 275° West 371 427 10,800 3,180 Level FlightAware
05:14PM 37.6964 -123.4092 275° West 420 483 14,900 3,540 Climbing Oakland Center
05:15PM 37.7089 -123.5622 276° West 432 497 16,700 1,500 Climbing Oakland Center
05:16PM 37.7286 -123.7178 279° West 442 509 18,000 1,260 Climbing Oakland Center
05:17PM 37.7514 -123.8736 281° West 447 514 19,400 1,260 Climbing Oakland Center
05:18PM 37.7733 -124.0344 280° West 460 529 20,700 1,140 Climbing Oakland Center
05:19PM 37.7961 -124.2000 280° West 476 548 21,800 1,020 Climbing Oakland Center
05:20PM 37.8192 -124.3697 280° West 487 560 22,900 1,080 Climbing Oakland Center
05:21PM 37.8406 -124.5414 279° West 495 570 24,100 1,080 Climbing Oakland Center
05:22PM 37.8631 -124.7150 279° West 499 574 25,200 1,080 Climbing Oakland Center
05:23PM 37.8903 -124.9261 279° West 504 580 26,400 1,020 Climbing Oakland Center
05:24PM 37.9119 -125.1044 279° West 512 589 27,400 960 Climbing Oakland Center
05:25PM 37.9358 -125.2811 280° West 511 588 28,400 780 Climbing Oakland Center
05:26PM 37.9561 -125.4572 278° West 509 586 29,000 240 Climbing Oakland Center
05:27PM 37.9775 -125.6331 279° West 507 583 29,000  Level Oakland Center
05:28PM 37.9986 -125.8078 279° West 505 581 29,000  Level Oakland Center
05:29PM 38.0189 -125.9839 278° West 504 580 29,000  Level Oakland Center
05:30PM 38.0392 -126.1575 278° West 502 578 29,000  Level Oakland Center
05:31PM 38.0603 -126.3489 278° West 503 579 29,000  Level Oakland Center
05:32PM 38.0806 -126.5244 278° West 503 579 29,000  Level Oakland Center
05:33PM 38.1014 -126.7011 279° West 506 582 29,000  Level Oakland Center
05:34PM 38.1206 -126.8769 278° West 505 581 29,000  Level Oakland Center
05:35PM 38.1333 -127.0000 288° West 500 575 29,000  Level Oakland Oceanic (ODAPS)
05:35PM 38.1519 -127.0853 288° West 502 578 29,000  Level Oakland Center
05:37PM 38.2019 -127.3019 286° West  Level FlightAware Approximate
05:39PM 38.3000 -127.6667 287° West 500 575 29,000  Level Oakland Oceanic (ODAPS)
05:39PM 38.3000 -127.7000 287° West 502 578 29,000  Level Oakland Oceanic (ODAPS)
05:44PM 38.4655 -128.3823 288° West  Level FlightAware Approximate
05:45PM 38.5342 -128.6624 286° West 500 575 29,000  Level FlightAware Transoceanic
05:46PM 38.5723 -128.8457 287° West 502 578 29,000  Level FlightAware Transoceanic
05:47PM 38.6103 -129.0101 286° West 502 578 29,000  Level FlightAware Transoceanic
05:48PM 38.6480 -129.1747 286° West 502 578 29,000  Level FlightAware Transoceanic
05:49PM 38.6856 -129.3394 286° West 502 578 29,000  Level FlightAware Transoceanic
05:50PM 38.7229 -129.5043 286° West 502 578 29,000  Level FlightAware Transoceanic
05:51PM 38.7599 -129.6694 286° West 502 578 29,000  Level FlightAware Transoceanic
05:52PM 38.7967 -129.8346 286° West 502 578 29,000  Level FlightAware Transoceanic
05:53PM 38.8333 -130.0000 296° West 502 578 29,000  Level FlightAware Transoceanic
05:53PM 38.8333 -130.0000 296° West 493 567 29,000  Level Oakland Oceanic (ODAPS)
05:53PM 38.8500 -130.0333 296° West 493 567 29,000  Level Oakland Oceanic (ODAPS)
05:54PM 38.8920 -130.1563 296° West 502 578 29,000  Level FlightAware Transoceanic
05:55PM 38.9504 -130.3128 296° West 502 578 29,000  Level FlightAware Transoceanic
05:56PM 39.0086 -130.4696 295° West 502 578 29,000  Level FlightAware Transoceanic
05:57PM 39.0666 -130.6266 295° West 502 578 29,000  Level FlightAware Transoceanic
05:58PM 39.1244 -130.7839 295° West 502 578 29,000  Level FlightAware Transoceanic
05:59PM 39.2025 -130.9876 295° West 493 567 29,000  Level FlightAware Transoceanic
06:00PM 39.2605 -131.1476 295° West 493 567 29,000  Level FlightAware Transoceanic
06:01PM 39.3182 -131.3078 295° West 493 567 29,000  Level FlightAware Transoceanic
06:01PM 39.3000 -131.2833 295° West 493 567 29,000  Level Oakland Oceanic (ODAPS)
06:02PM 39.3758 -131.4683 295° West 493 567 29,000  Level FlightAware Transoceanic
06:03PM 39.4331 -131.6291 295° West 493 567 29,000  Level FlightAware Transoceanic
06:04PM 39.4902 -131.7901 295° West 493 567 29,000  Level FlightAware Transoceanic
06:05PM 39.5471 -131.9514 295° West 493 567 29,000  Level FlightAware Transoceanic
06:06PM 39.6038 -132.1129 294° West 493 567 29,000  Level FlightAware Transoceanic
06:07PM 39.6443 -132.2528 294° West 493 567 29,000  Level FlightAware Transoceanic
06:07PM 39.6500 -132.2500 294° West 492 566 29,000  Level Oakland Oceanic (ODAPS)
06:08PM 39.7008 -132.4153 294° West 493 567 29,000  Level FlightAware Transoceanic
06:09PM 39.7572 -132.5781 294° West 493 567 29,000  Level FlightAware Transoceanic
06:10PM 39.8133 -132.7411 294° West 493 567 29,000  Level FlightAware Transoceanic
06:11PM 39.8693 -132.9044 294° West 493 567 29,000  Level FlightAware Transoceanic
06:12PM 39.9249 -133.0680 294° West 493 567 29,000  Level FlightAware Transoceanic
06:13PM 39.9854 -133.2294 294° West 492 566 29,000  Level FlightAware Transoceanic
06:14PM 40.0405 -133.3936 294° West 492 566 29,000  Level FlightAware Transoceanic
06:15PM 40.0953 -133.5581 294° West 492 566 29,000  Level FlightAware Transoceanic
06:16PM 40.1500 -133.7228 293° West 492 566 29,000  Level FlightAware Transoceanic
06:17PM 40.2044 -133.8877 293° West 492 566 29,000  Level FlightAware Transoceanic
06:18PM 40.2585 -134.0529 293° West 492 566 29,000  Level FlightAware Transoceanic
06:19PM 40.3125 -134.2184 293° West 492 566 29,000  Level FlightAware Transoceanic
06:20PM 40.3661 -134.3842 293° West 492 566 29,000  Level FlightAware Transoceanic
06:21PM 40.4196 -134.5502 293° West 492 566 29,000  Level FlightAware Transoceanic
06:21PM 40.4000 -134.5000 293° West 486 559 29,000  Level Oakland Oceanic (ODAPS)
06:22PM 40.4728 -134.7165 293° West 492 566 29,000  Level FlightAware Transoceanic
06:23PM 40.5258 -134.8831 293° West 492 566 29,000  Level FlightAware Transoceanic
06:24PM 40.5785 -135.0499 293° West 492 566 29,000  Level FlightAware Transoceanic
06:25PM 40.6310 -135.2169 292° West 492 566 29,000  Level FlightAware Transoceanic
06:26PM 40.6833 -135.3843 292° West 492 566 29,000  Level FlightAware Transoceanic
06:27PM 40.7102 -135.4799 292° West 486 559 29,000  Level FlightAware Transoceanic
06:28PM 40.7610 -135.6441 292° West 486 559 29,000  Level FlightAware Transoceanic
06:29PM 40.8117 -135.8085 292° West 486 559 29,000  Level FlightAware Transoceanic
06:30PM 40.8621 -135.9732 292° West 486 559 29,000  Level FlightAware Transoceanic
06:31PM 40.9123 -136.1381 292° West 486 559 29,000  Level FlightAware Transoceanic
06:32PM 40.9622 -136.3033 292° West 486 559 29,000  Level FlightAware Transoceanic
06:33PM 41.0120 -136.4688 292° West 486 559 29,000  Level FlightAware Transoceanic
06:34PM 41.0614 -136.6345 292° West 486 559 29,000  Level FlightAware Transoceanic
06:34PM 41.0833 -136.7333 292° West 474 545 29,000  Level Oakland Oceanic (ODAPS)
06:35PM 41.1107 -136.8004 291° West 486 559 29,000  Level FlightAware Transoceanic
06:36PM 41.1597 -136.9666 291° West 486 559 29,000  Level FlightAware Transoceanic
06:37PM 41.2084 -137.1331 291° West 486 559 29,000  Level FlightAware Transoceanic
06:38PM 41.2570 -137.2997 291° West 486 559 29,000  Level FlightAware Transoceanic
06:39PM 41.3052 -137.4667 291° West 486 559 29,000  Level FlightAware Transoceanic
06:40PM 41.3533 -137.6339 291° West 486 559 29,000  Level FlightAware Transoceanic
06:41PM 41.3680 -137.7036 291° West 474 545 29,000  Level FlightAware Transoceanic
06:42PM 41.4146 -137.8661 291° West 474 545 29,000  Level FlightAware Transoceanic
06:43PM 41.4611 -138.0289 291° West 474 545 29,000  Level FlightAware Transoceanic
06:44PM 41.5073 -138.1919 291° West 474 545 29,000  Level FlightAware Transoceanic
06:45PM 41.5532 -138.3551 291° West 474 545 29,000  Level FlightAware Transoceanic
06:46PM 41.5989 -138.5185 290° West 474 545 29,000  Level FlightAware Transoceanic
06:47PM 41.6445 -138.6822 290° West 474 545 29,000  Level FlightAware Transoceanic
06:48PM 41.6897 -138.8461 290° West 474 545 29,000  Level FlightAware Transoceanic
06:48PM 41.7333 -138.9667 289° West 469 540 29,000  Level Oakland Oceanic (ODAPS)
06:49PM 41.7347 -139.0103 290° West 474 545 29,000  Level FlightAware Transoceanic
06:50PM 41.7795 -139.1747 290° West 474 545 29,000  Level FlightAware Transoceanic
06:51PM 41.8241 -139.3393 290° West 474 545 29,000  Level FlightAware Transoceanic
06:52PM 41.8684 -139.5041 290° West 474 545 29,000  Level FlightAware Transoceanic
06:53PM 41.9125 -139.6692 290° West 474 545 29,000  Level FlightAware Transoceanic
06:54PM 41.9564 -139.8345 290° West 474 545 29,000  Level FlightAware Transoceanic
06:55PM 42.0000 -140.0000 296° West 469 540 29,000  Level FlightAware Transoceanic
06:55PM 42.0000 -140.0000 296° West 459 528 29,000  Level Oakland Oceanic (ODAPS)
06:56PM 42.0560 -140.1558 296° West 469 540 29,000  Level FlightAware Transoceanic
06:57PM 42.1118 -140.3119 296° West 469 540 29,000  Level FlightAware Transoceanic
06:58PM 42.1673 -140.4683 296° West 469 540 29,000  Level FlightAware Transoceanic
06:59PM 42.2226 -140.6249 295° West 469 540 29,000  Level FlightAware Transoceanic
07:00PM 42.2778 -140.7818 295° West 469 540 29,000  Level FlightAware Transoceanic
07:01PM 42.3274 -140.9238 295° West 459 528 29,000  Level FlightAware Transoceanic
07:02PM 42.3812 -141.0787 295° West 459 528 29,000  Level FlightAware Transoceanic
07:02PM 42.4167 -141.1833 295° West 450 518 29,000  Level Oakland Oceanic (ODAPS)
07:03PM 42.4349 -141.2339 295° West 459 528 29,000  Level FlightAware Transoceanic
07:04PM 42.4883 -141.3893 295° West 459 528 29,000  Level FlightAware Transoceanic
07:05PM 42.5415 -141.5450 295° West 459 528 29,000  Level FlightAware Transoceanic
07:06PM 42.5945 -141.7009 295° West 459 528 29,000  Level FlightAware Transoceanic
07:07PM 42.6473 -141.8571 295° West 459 528 29,000  Level FlightAware Transoceanic
07:08PM 42.7307 -142.1078 294° West 450 518 29,000  Level FlightAware Transoceanic
07:09PM 42.7823 -142.2628 294° West 450 518 29,000  Level FlightAware Transoceanic
07:10PM 42.8337 -142.4180 294° West 450 518 29,000  Level FlightAware Transoceanic
07:11PM 42.8849 -142.5735 294° West 450 518 29,000  Level FlightAware Transoceanic
07:12PM 42.9358 -142.7293 294° West 450 518 29,000  Level FlightAware Transoceanic
07:13PM 42.9866 -142.8853 294° West 450 518 29,000  Level FlightAware Transoceanic
07:14PM 43.0372 -143.0415 294° West 450 518 29,000  Level FlightAware Transoceanic
07:15PM 43.0875 -143.1981 294° West 450 518 29,000  Level FlightAware Transoceanic
07:16PM 43.1376 -143.3549 294° West 450 518 29,000  Level FlightAware Transoceanic
07:16PM 43.1500 -143.4000 294° West 448 516 29,000  Level Oakland Oceanic (ODAPS)
07:17PM 43.1876 -143.5119 293° West 450 518 29,000  Level FlightAware Transoceanic
07:18PM 43.2373 -143.6692 293° West 450 518 29,000  Level FlightAware Transoceanic
07:19PM 43.2867 -143.8268 293° West 450 518 29,000  Level FlightAware Transoceanic
07:20PM 43.3360 -143.9846 293° West 450 518 29,000  Level FlightAware Transoceanic
07:21PM 43.3851 -144.1426 293° West 450 518 29,000  Level FlightAware Transoceanic
07:22PM 43.4441 -144.3398 293° West 448 516 29,000  Level FlightAware Transoceanic
07:23PM 43.4924 -144.4973 293° West 448 516 29,000  Level FlightAware Transoceanic
07:24PM 43.5404 -144.6551 293° West 448 516 29,000  Level FlightAware Transoceanic
07:25PM 43.5883 -144.8132 293° West 448 516 29,000  Level FlightAware Transoceanic
07:26PM 43.6359 -144.9714 293° West 448 516 29,000  Level FlightAware Transoceanic
07:27PM 43.6833 -145.1299 292° West 448 516 29,000  Level FlightAware Transoceanic
07:28PM 43.7305 -145.2887 292° West 448 516 29,000  Level FlightAware Transoceanic
07:29PM 43.7774 -145.4478 292° West 448 516 29,000  Level FlightAware Transoceanic
07:30PM 43.8242 -145.6070 292° West 448 516 29,000  Level FlightAware Transoceanic
07:30PM 43.8167 -145.6000 292° West 445 512 29,000  Level Oakland Oceanic (ODAPS)
07:31PM 43.8707 -145.7666 292° West 448 516 29,000  Level FlightAware Transoceanic
07:32PM 43.9170 -145.9263 292° West 448 516 29,000  Level FlightAware Transoceanic
07:33PM 43.9630 -146.0863 292° West 448 516 29,000  Level FlightAware Transoceanic
07:34PM 44.0089 -146.2466 292° West 448 516 29,000  Level FlightAware Transoceanic
07:35PM 44.0545 -146.4071 292° West 448 516 29,000  Level FlightAware Transoceanic
07:36PM 44.0941 -146.5623 291° West 445 512 29,000  Level FlightAware Transoceanic
07:37PM 44.1396 -146.7236 291° West 445 512 29,000  Level FlightAware Transoceanic
07:38PM 44.1848 -146.8851 291° West 445 512 29,000  Level FlightAware Transoceanic
07:39PM 44.2298 -147.0468 291° West 445 512 29,000  Level FlightAware Transoceanic
07:40PM 44.2746 -147.2088 291° West 445 512 29,000  Level FlightAware Transoceanic
07:41PM 44.3191 -147.3710 291° West 445 512 29,000  Level FlightAware Transoceanic
07:42PM 44.3634 -147.5335 291° West 445 512 29,000  Level FlightAware Transoceanic
07:43PM 44.4075 -147.6963 291° West 445 512 29,000  Level FlightAware Transoceanic
07:44PM 44.4514 -147.8593 291° West 445 512 29,000  Level FlightAware Transoceanic
07:44PM 44.4333 -147.8000 291° West 442 509 29,000  Level Oakland Oceanic (ODAPS)
07:45PM 44.4950 -148.0225 290° West 445 512 29,000  Level FlightAware Transoceanic
07:46PM 44.5383 -148.1859 290° West 445 512 29,000  Level FlightAware Transoceanic
07:47PM 44.5815 -148.3497 290° West 445 512 29,000  Level FlightAware Transoceanic
07:48PM 44.6244 -148.5136 290° West 445 512 29,000  Level FlightAware Transoceanic
07:49PM 44.6671 -148.6778 290° West 445 512 29,000  Level FlightAware Transoceanic
07:50PM 44.6814 -148.7376 290° West 442 509 29,000  Level FlightAware Transoceanic
07:51PM 44.7220 -148.8946 290° West 442 509 29,000  Level FlightAware Transoceanic
07:52PM 44.7623 -149.0519 290° West 442 509 29,000  Level FlightAware Transoceanic
07:53PM 44.8025 -149.2094 290° West 442 509 29,000  Level FlightAware Transoceanic
07:54PM 44.8424 -149.3670 290° West 442 509 29,000  Level FlightAware Transoceanic
07:55PM 44.8821 -149.5250 289° West 442 509 29,000  Level FlightAware Transoceanic
07:56PM 44.9216 -149.6831 289° West 442 509 29,000  Level FlightAware Transoceanic
07:57PM 44.9609 -149.8414 289° West 442 509 29,000  Level FlightAware Transoceanic
07:57PM 45.0000 -150.0000 297° West 465 535 29,000  Level Oakland Oceanic (ODAPS)
07:58PM 45.0000 -150.0000 297° West 442 509 29,000  Level FlightAware Transoceanic
07:59PM 45.0621 -150.1719 297° West 442 509 29,000  Level FlightAware Transoceanic
08:00PM 45.1239 -150.3441 297° West 442 509 29,000  Level FlightAware Transoceanic
08:01PM 45.1854 -150.5167 297° West 442 509 29,000  Level FlightAware Transoceanic
08:02PM 45.2467 -150.6897 297° West 442 509 29,000  Level FlightAware Transoceanic
08:03PM 45.3077 -150.8630 297° West 442 509 29,000  Level FlightAware Transoceanic
08:04PM 45.3496 -150.9828 296° West 465 535 29,000  Level FlightAware Transoceanic
08:05PM 45.4071 -151.1478 296° West 465 535 29,000  Level FlightAware Transoceanic
08:06PM 45.4643 -151.3131 296° West 465 535 29,000  Level FlightAware Transoceanic
08:07PM 45.5213 -151.4787 296° West 465 535 29,000  Level FlightAware Transoceanic
08:08PM 45.5780 -151.6447 296° West 465 535 29,000  Level FlightAware Transoceanic
08:09PM 45.6345 -151.8110 296° West 465 535 29,000  Level FlightAware Transoceanic
08:10PM 45.6907 -151.9776 296° West 465 535 29,000  Level FlightAware Transoceanic
08:11PM 45.7467 -152.1446 296° West 465 535 29,000 480 Level FlightAware Transoceanic
08:11PM 45.7500 -152.1500 296° West 460 529 30,000  Climbing Oakland Oceanic (ODAPS)
08:12PM 45.8025 -152.3119 295° West 465 535 29,000 -1,020 Descending FlightAware Transoceanic
08:13PM 45.8580 -152.4796 295° West 465 535 29,000  Level FlightAware Transoceanic
08:14PM 45.9133 -152.6476 295° West 465 535 29,000  Level FlightAware Transoceanic
08:15PM 45.9683 -152.8159 295° West 465 535 29,000  Level FlightAware Transoceanic
08:16PM 46.0231 -152.9845 295° West 465 535 29,000  Level FlightAware Transoceanic
08:17PM 46.0776 -153.1535 295° West 465 535 29,000 480 Level FlightAware Transoceanic
08:18PM 46.0804 -153.1583 295° West 460 529 30,000 480 Climbing FlightAware Transoceanic
08:19PM 46.1346 -153.3275 295° West 460 529 30,000  Level FlightAware Transoceanic
08:20PM 46.1885 -153.4970 295° West 460 529 30,000  Level FlightAware Transoceanic
08:21PM 46.2422 -153.6669 294° West 460 529 30,000  Level FlightAware Transoceanic
08:22PM 46.2957 -153.8371 294° West 460 529 30,000  Level FlightAware Transoceanic
08:23PM 46.3489 -154.0076 294° West 460 529 30,000  Level FlightAware Transoceanic
08:24PM 46.4018 -154.1785 294° West 460 529 30,000  Level FlightAware Transoceanic
08:25PM 46.4545 -154.3497 294° West 460 529 30,000  Level FlightAware Transoceanic
08:25PM 46.4333 -154.2833 294° West 446 513 30,000  Level Oakland Oceanic (ODAPS)
08:26PM 46.5069 -154.5213 294° West 460 529 30,000  Level FlightAware Transoceanic
08:27PM 46.5591 -154.6931 294° West 460 529 30,000  Level FlightAware Transoceanic
08:28PM 46.6110 -154.8653 294° West 460 529 30,000  Level FlightAware Transoceanic
08:29PM 46.6627 -155.0378 293° West 460 529 30,000  Level FlightAware Transoceanic
08:30PM 46.7141 -155.2107 293° West 460 529 30,000  Level FlightAware Transoceanic
08:31PM 46.7652 -155.3839 293° West 460 529 30,000  Level FlightAware Transoceanic
08:32PM 46.7391 -155.2974 293° West 446 513 30,000  Level FlightAware Transoceanic
08:33PM 46.7892 -155.4675 293° West 446 513 30,000  Level FlightAware Transoceanic
08:34PM 46.8390 -155.6380 293° West 446 513 30,000  Level FlightAware Transoceanic
08:35PM 46.8886 -155.8087 293° West 446 513 30,000  Level FlightAware Transoceanic
08:36PM 46.9379 -155.9798 293° West 446 513 30,000  Level FlightAware Transoceanic
08:37PM 46.9869 -156.1512 293° West 446 513 30,000  Level FlightAware Transoceanic
08:38PM 47.0358 -156.3229 293° West 446 513 30,000  Level FlightAware Transoceanic
08:39PM 47.0843 -156.4949 292° West 446 513 30,000  Level FlightAware Transoceanic
08:39PM 47.1000 -156.5833 293° West 473 544 30,000  Level Oakland Oceanic (ODAPS)
08:40PM 47.1326 -156.6672 292° West 446 513 30,000  Level FlightAware Transoceanic
08:41PM 47.1806 -156.8399 292° West 446 513 30,000  Level FlightAware Transoceanic
08:42PM 47.2284 -157.0128 292° West 446 513 30,000  Level FlightAware Transoceanic
08:43PM 47.2759 -157.1861 292° West 446 513 30,000  Level FlightAware Transoceanic
08:44PM 47.3232 -157.3596 292° West 446 513 30,000  Level FlightAware Transoceanic
08:45PM 47.3702 -157.5335 292° West 446 513 30,000  Level FlightAware Transoceanic
08:46PM 47.4434 -157.8284 292° West 473 544 30,000  Level FlightAware Transoceanic
08:47PM 47.4913 -158.0076 292° West 473 544 30,000  Level FlightAware Transoceanic
08:48PM 47.5390 -158.1871 291° West 473 544 30,000  Level FlightAware Transoceanic
08:49PM 47.5863 -158.3669 291° West 473 544 30,000  Level FlightAware Transoceanic
08:50PM 47.6334 -158.5471 291° West 473 544 30,000  Level FlightAware Transoceanic
08:51PM 47.6803 -158.7276 291° West 473 544 30,000  Level FlightAware Transoceanic
08:52PM 47.7268 -158.9084 291° West 473 544 30,000  Level FlightAware Transoceanic
08:53PM 47.7730 -159.0895 291° West 473 544 30,000 420 Level FlightAware Transoceanic
08:53PM 47.7833 -159.1500 291° West 507 583 30,700  Climbing Oakland Oceanic (ODAPS)
08:54PM 47.8190 -159.2710 291° West 473 544 30,000 -540 Descending FlightAware Transoceanic
08:55PM 47.8647 -159.4528 290° West 473 544 30,000  Level FlightAware Transoceanic
08:56PM 47.9101 -159.6349 290° West 473 544 30,000  Level FlightAware Transoceanic
08:57PM 47.9552 -159.8173 290° West 473 544 30,000 480 Level FlightAware Transoceanic
08:57PM 48.0000 -160.0000 274° West 542 624 31,000  Climbing Oakland Oceanic (ODAPS)
08:58PM 48.0000 -160.0000 274° West 473 544 30,000 -300 Descending FlightAware Transoceanic
08:59PM 48.0099 -160.2319 274° West 507 583 30,700 300 Climbing FlightAware Transoceanic
09:00PM 48.0192 -160.4640 273° West 507 583 30,700  Level FlightAware Transoceanic
09:01PM 48.0282 -160.6961 273° West 507 583 30,700  Level FlightAware Transoceanic
09:02PM 48.0366 -160.9283 273° West 507 583 30,700  Level FlightAware Transoceanic
09:03PM 48.0446 -161.1606 273° West 507 583 30,700 120 Level FlightAware Transoceanic
09:04PM 48.0511 -161.3612 273° West 542 624 31,000 120 Climbing FlightAware Transoceanic
09:05PM 48.0581 -161.5883 273° West 542 624 31,000  Level FlightAware Transoceanic
09:06PM 48.0646 -161.8155 272° West 542 624 31,000  Level FlightAware Transoceanic
09:07PM 48.0706 -162.0428 272° West 542 624 31,000  Level FlightAware Transoceanic
09:07PM 48.0667 -162.1000 272° West 558 642 31,000  Level Oakland Oceanic (ODAPS)
09:08PM 48.0763 -162.2700 272° West 542 624 31,000  Level FlightAware Transoceanic
09:09PM 48.0814 -162.4974 272° West 542 624 31,000  Level FlightAware Transoceanic
09:10PM 48.0861 -162.7247 272° West 542 624 31,000  Level FlightAware Transoceanic
09:11PM 48.0904 -162.9521 272° West 542 624 31,000  Level FlightAware Transoceanic
09:12PM 48.0942 -163.1796 271° West 542 624 31,000  Level FlightAware Transoceanic
09:13PM 48.0943 -163.4943 271° West 558 642 31,000  Level FlightAware Transoceanic
09:14PM 48.0973 -163.7268 271° West 558 642 31,000  Level FlightAware Transoceanic
09:15PM 48.0998 -163.9593 271° West 558 642 31,000  Level FlightAware Transoceanic
09:16PM 48.1018 -164.1919 271° West 558 642 31,000  Level FlightAware Transoceanic
09:17PM 48.1033 -164.4245 270° West 558 642 31,000  Level FlightAware Transoceanic
09:18PM 48.1044 -164.6570 270° West 558 642 31,000  Level FlightAware Transoceanic
09:19PM 48.1050 -164.8896 270° West 558 642 31,000  Level FlightAware Transoceanic
09:20PM 48.1052 -165.1222 270° West 558 642 31,000  Level FlightAware Transoceanic
09:21PM 48.1049 -165.3548 270° West 558 642 31,000  Level FlightAware Transoceanic
09:21PM 48.1000 -165.3333 270° West 578 665 31,000  Level Oakland Oceanic (ODAPS)
09:22PM 48.1041 -165.5874 270° West 558 642 31,000  Level FlightAware Transoceanic
09:23PM 48.1028 -165.8200 269° West 558 642 31,000  Level FlightAware Transoceanic
09:24PM 48.1011 -166.0526 269° West 558 642 31,000  Level FlightAware Transoceanic
09:25PM 48.0989 -166.2851 269° West 558 642 31,000  Level FlightAware Transoceanic
09:26PM 48.0962 -166.5176 269° West 558 642 31,000  Level FlightAware Transoceanic
09:27PM 48.0899 -166.7350 269° West 578 665 31,000  Level FlightAware Transoceanic
09:28PM 48.0865 -166.9685 269° West 578 665 31,000  Level FlightAware Transoceanic
09:29PM 48.0827 -167.2020 269° West 578 665 31,000  Level FlightAware Transoceanic
09:30PM 48.0784 -167.4355 268° West 578 665 31,000  Level FlightAware Transoceanic
09:31PM 48.0736 -167.6689 268° West 578 665 31,000  Level FlightAware Transoceanic
09:32PM 48.0684 -167.9023 268° West 578 665 31,000  Level FlightAware Transoceanic
09:33PM 48.0627 -168.1357 268° West 578 665 31,000  Level FlightAware Transoceanic
09:34PM 48.0565 -168.3689 268° West 578 665 31,000  Level FlightAware Transoceanic
09:35PM 48.0498 -168.6021 267° West 578 665 31,000  Level FlightAware Transoceanic
09:35PM 48.0500 -168.6833 267° West 582 670 31,000  Level Oakland Oceanic (ODAPS)
09:36PM 48.0427 -168.8353 267° West 578 665 31,000  Level FlightAware Transoceanic
09:37PM 48.0351 -169.0684 267° West 578 665 31,000  Level FlightAware Transoceanic
09:38PM 48.0270 -169.3014 267° West 578 665 31,000  Level FlightAware Transoceanic
09:39PM 48.0185 -169.5343 267° West 578 665 31,000  Level FlightAware Transoceanic
09:40PM 48.0095 -169.7672 267° West 578 665 31,000  Level FlightAware Transoceanic
09:40PM 48.0000 -170.0000 265° West 583 671 31,000  Level Oakland Oceanic (ODAPS)
09:41PM 47.9864 -170.2419 265° West 582 670 31,000  Level FlightAware Transoceanic
09:42PM 47.9723 -170.4838 265° West 582 670 31,000  Level FlightAware Transoceanic
09:43PM 47.9577 -170.7255 265° West 582 670 31,000  Level FlightAware Transoceanic
09:44PM 47.9426 -170.9670 265° West 582 670 31,000  Level FlightAware Transoceanic
09:45PM 47.9270 -171.2084 264° West 582 670 31,000  Level FlightAware Transoceanic
09:46PM 47.9131 -171.4160 264° West 583 671 31,000  Level FlightAware Transoceanic
09:47PM 47.8970 -171.6515 264° West 583 671 31,000  Level FlightAware Transoceanic
09:48PM 47.8803 -171.8869 264° West 583 671 31,000  Level FlightAware Transoceanic
09:49PM 47.8632 -172.1221 264° West 583 671 31,000  Level FlightAware Transoceanic
09:49PM 47.8667 -172.0167 264° West 580 667 31,000  Level Oakland Oceanic (ODAPS)
09:50PM 47.8456 -172.3572 264° West 583 671 31,000  Level FlightAware Transoceanic
09:51PM 47.8275 -172.5921 263° West 583 671 31,000  Level FlightAware Transoceanic
09:52PM 47.8089 -172.8268 263° West 583 671 31,000  Level FlightAware Transoceanic
09:53PM 47.7899 -173.0614 263° West 583 671 31,000  Level FlightAware Transoceanic
09:54PM 47.7704 -173.2958 263° West 583 671 31,000  Level FlightAware Transoceanic
09:55PM 47.7543 -173.4434 263° West 580 667 31,000  Level FlightAware Transoceanic
09:56PM 47.7338 -173.6806 263° West 580 667 31,000  Level FlightAware Transoceanic
09:57PM 47.7129 -173.9176 262° West 580 667 31,000  Level FlightAware Transoceanic
09:58PM 47.6915 -174.1544 262° West 580 667 31,000  Level FlightAware Transoceanic
09:59PM 47.6696 -174.3909 262° West 580 667 31,000  Level FlightAware Transoceanic
10:00PM 47.6472 -174.6273 262° West 580 667 31,000  Level FlightAware Transoceanic
10:01PM 47.6243 -174.8635 262° West 580 667 31,000  Level FlightAware Transoceanic
10:02PM 47.6009 -175.0995 262° West 580 667 31,000  Level FlightAware Transoceanic
10:02PM 47.5833 -175.3000 261° West 575 662 31,000  Level Oakland Oceanic (ODAPS)
10:03PM 47.5771 -175.3353 261° West 580 667 31,000  Level FlightAware Transoceanic
10:04PM 47.5527 -175.5708 261° West 580 667 31,000  Level FlightAware Transoceanic
10:05PM 47.5279 -175.8062 261° West 580 667 31,000  Level FlightAware Transoceanic
10:06PM 47.5027 -176.0413 261° West 580 667 31,000  Level FlightAware Transoceanic
10:07PM 47.4769 -176.2761 261° West 580 667 31,000  Level FlightAware Transoceanic
10:08PM 47.4506 -176.5108 261° West 580 667 31,000  Level FlightAware Transoceanic
10:09PM 47.4286 -176.7207 260° West 575 662 31,000  Level FlightAware Transoceanic
10:10PM 47.4011 -176.9566 260° West 575 662 31,000  Level FlightAware Transoceanic
10:11PM 47.3731 -177.1923 260° West 575 662 31,000  Level FlightAware Transoceanic
10:12PM 47.3446 -177.4278 260° West 575 662 31,000  Level FlightAware Transoceanic
10:13PM 47.3157 -177.6630 260° West 575 662 31,000  Level FlightAware Transoceanic
10:14PM 47.2863 -177.8979 259° West 575 662 31,000  Level FlightAware Transoceanic
10:15PM 47.2564 -178.1326 259° West 575 662 31,000  Level FlightAware Transoceanic
10:16PM 47.2260 -178.3670 259° West 575 662 31,000  Level FlightAware Transoceanic
10:16PM 47.2000 -178.5167 259° West 574 661 31,000  Level Oakland Oceanic (ODAPS)
10:17PM 47.1951 -178.6011 259° West 575 662 31,000  Level FlightAware Transoceanic
10:18PM 47.1638 -178.8350 259° West 575 662 31,000  Level FlightAware Transoceanic
10:19PM 47.1320 -179.0685 259° West 575 662 31,000  Level FlightAware Transoceanic
10:20PM 47.0997 -179.3018 258° West 575 662 31,000  Level FlightAware Transoceanic
10:21PM 47.0669 -179.5348 258° West 575 662 31,000  Level FlightAware Transoceanic
10:22PM 47.0347 -179.7536 258° West 574 661 31,000  Level FlightAware Transoceanic
10:23PM 47.0000 -180.0000 265° West 574 661 31,000  Level FlightAware Transoceanic
10:23PM 47.0000 180.0000 265° West 551 634 31,000  Level Oakland Oceanic (ODAPS)
10:24PM 46.9874 179.7743 265° West 574 661 31,000  Level FlightAware Transoceanic
10:25PM 46.9743 179.5487 265° West 574 661 31,000  Level FlightAware Transoceanic
10:26PM 46.9607 179.3232 265° West 574 661 31,000  Level FlightAware Transoceanic
10:27PM 46.9468 179.0979 265° West 574 661 31,000  Level FlightAware Transoceanic
10:28PM 46.9323 178.8726 265° West 574 661 31,000  Level FlightAware Transoceanic
10:29PM 46.9194 178.6769 264° West 551 634 31,000  Level FlightAware Transoceanic
10:30PM 46.9045 178.4567 264° West 551 634 31,000  Level FlightAware Transoceanic
10:30PM 46.9000 178.3000 264° West 537 618 31,000  Level Oakland Oceanic (ODAPS)
10:31PM 46.8892 178.2367 264° West 551 634 31,000  Level FlightAware Transoceanic
10:32PM 46.8735 178.0169 264° West 551 634 31,000  Level FlightAware Transoceanic
10:33PM 46.8573 177.7971 264° West 551 634 31,000  Level FlightAware Transoceanic
10:34PM 46.8407 177.5775 264° West 551 634 31,000  Level FlightAware Transoceanic
10:35PM 46.8237 177.3581 263° West 551 634 31,000  Level FlightAware Transoceanic
10:36PM 46.8009 177.0065 263° West 537 618 31,000  Level FlightAware Transoceanic
10:37PM 46.7830 176.7914 263° West 537 618 31,000  Level FlightAware Transoceanic
10:38PM 46.7647 176.5764 263° West 537 618 31,000  Level FlightAware Transoceanic
10:39PM 46.7459 176.3616 263° West 537 618 31,000  Level FlightAware Transoceanic
10:40PM 46.7268 176.1469 263° West 537 618 31,000  Level FlightAware Transoceanic
10:41PM 46.7073 175.9324 262° West 537 618 31,000  Level FlightAware Transoceanic
10:42PM 46.6873 175.7180 262° West 537 618 31,000  Level FlightAware Transoceanic
10:43PM 46.6670 175.5038 262° West 537 618 31,000  Level FlightAware Transoceanic
10:44PM 46.6463 175.2898 262° West 537 618 31,000  Level FlightAware Transoceanic
10:44PM 46.6333 175.1667 262° West 543 625 31,000  Level Oakland Oceanic (ODAPS)
10:45PM 46.6251 175.0759 262° West 537 618 31,000  Level FlightAware Transoceanic
10:46PM 46.6036 174.8622 262° West 537 618 31,000  Level FlightAware Transoceanic
10:47PM 46.5817 174.6487 261° West 537 618 31,000  Level FlightAware Transoceanic
10:48PM 46.5593 174.4353 261° West 537 618 31,000  Level FlightAware Transoceanic
10:49PM 46.5366 174.2222 261° West 537 618 31,000  Level FlightAware Transoceanic
10:50PM 46.4969 173.8641 261° West 543 625 31,000  Level FlightAware Transoceanic
10:51PM 46.4727 173.6476 261° West 543 625 31,000  Level FlightAware Transoceanic
10:52PM 46.4482 173.4314 261° West 543 625 31,000  Level FlightAware Transoceanic
10:53PM 46.4232 173.2153 260° West 543 625 31,000  Level FlightAware Transoceanic
10:54PM 46.3978 172.9995 260° West 543 625 31,000  Level FlightAware Transoceanic
10:55PM 46.3720 172.7838 260° West 543 625 31,000  Level FlightAware Transoceanic
10:56PM 46.3458 172.5684 260° West 543 625 31,000  Level FlightAware Transoceanic
10:57PM 46.3191 172.3531 260° West 543 625 31,000  Level FlightAware Transoceanic
10:58PM 46.2921 172.1381 260° West 543 625 31,000  Level FlightAware Transoceanic
10:58PM 46.3000 172.1500 259° West 547 629 31,000  Level Oakland Oceanic (ODAPS)
10:59PM 46.2647 171.9233 259° West 543 625 31,000  Level FlightAware Transoceanic
11:00PM 46.2369 171.7087 259° West 543 625 31,000  Level FlightAware Transoceanic
11:01PM 46.2087 171.4943 259° West 543 625 31,000  Level FlightAware Transoceanic
11:02PM 46.1801 171.2802 259° West 543 625 31,000  Level FlightAware Transoceanic
11:03PM 46.1511 171.0662 259° West 543 625 31,000  Level FlightAware Transoceanic
11:04PM 46.1248 170.8572 258° West 547 629 31,000  Level FlightAware Transoceanic
11:05PM 46.0942 170.6425 258° West 547 629 31,000  Level FlightAware Transoceanic
11:06PM 46.0632 170.4281 258° West 547 629 31,000  Level FlightAware Transoceanic
11:07PM 46.0318 170.2139 258° West 547 629 31,000  Level FlightAware Transoceanic
11:08PM 46.0000 170.0000 251° West 547 629 31,000  Level FlightAware Transoceanic
11:08PM 46.0000 170.0000 251° West 477 549 31,000  Level Oakland Oceanic (ODAPS)
11:09PM 45.9559 169.8190 251° West 547 629 31,000  Level FlightAware Transoceanic
11:10PM 45.9115 169.6383 250° West 547 629 31,000  Level FlightAware Transoceanic
11:11PM 45.8669 169.4579 250° West 547 629 31,000  Level FlightAware Transoceanic
11:12PM 45.8220 169.2777 250° West 547 629 31,000  Level FlightAware Transoceanic
11:12PM 45.8333 169.3000 250° West 455 524 31,000  Level Oakland Oceanic (ODAPS)
11:13PM 45.7767 169.0979 250° West 547 629 31,000  Level FlightAware Transoceanic
11:14PM 45.7359 168.9366 250° West 477 549 31,000  Level FlightAware Transoceanic
11:15PM 45.6909 168.7603 250° West 477 549 31,000  Level FlightAware Transoceanic
11:16PM 45.6457 168.5843 250° West 477 549 31,000  Level FlightAware Transoceanic
11:17PM 45.6002 168.4086 250° West 477 549 31,000  Level FlightAware Transoceanic
11:18PM 45.5716 168.2790 249° West 455 524 31,000  Level FlightAware Transoceanic
11:19PM 45.5271 168.1098 249° West 455 524 31,000  Level FlightAware Transoceanic
11:20PM 45.4823 167.9408 249° West 455 524 31,000  Level FlightAware Transoceanic
11:21PM 45.4373 167.7721 249° West 455 524 31,000  Level FlightAware Transoceanic
11:22PM 45.3920 167.6037 249° West 455 524 31,000  Level FlightAware Transoceanic
11:23PM 45.3465 167.4355 249° West 455 524 31,000  Level FlightAware Transoceanic
11:24PM 45.3008 167.2676 249° West 455 524 31,000  Level FlightAware Transoceanic
11:25PM 45.2548 167.1000 249° West 455 524 31,000  Level FlightAware Transoceanic
11:26PM 45.2085 166.9327 249° West 455 524 31,000  Level FlightAware Transoceanic
11:26PM 45.1833 166.8833 249° West 435 501 31,000  Level Oakland Oceanic (ODAPS)
11:27PM 45.1620 166.7656 248° West 455 524 31,000  Level FlightAware Transoceanic
11:28PM 45.1153 166.5988 248° West 455 524 31,000  Level FlightAware Transoceanic
11:29PM 45.0684 166.4323 248° West 455 524 31,000  Level FlightAware Transoceanic
11:30PM 45.0211 166.2660 248° West 455 524 31,000  Level FlightAware Transoceanic
11:31PM 44.9737 166.1001 248° West 455 524 31,000  Level FlightAware Transoceanic
11:32PM 44.9165 165.9363 248° West 435 501 31,000  Level FlightAware Transoceanic
11:33PM 44.8713 165.7793 248° West 435 501 31,000  Level FlightAware Transoceanic
11:34PM 44.8259 165.6226 248° West 435 501 31,000  Level FlightAware Transoceanic
11:35PM 44.7802 165.4661 248° West 435 501 31,000  Level FlightAware Transoceanic
11:36PM 44.7344 165.3099 247° West 435 501 31,000  Level FlightAware Transoceanic
11:37PM 44.6883 165.1539 247° West 435 501 31,000  Level FlightAware Transoceanic
11:38PM 44.6420 164.9982 247° West 435 501 31,000  Level FlightAware Transoceanic
11:39PM 44.5955 164.8427 247° West 435 501 31,000  Level FlightAware Transoceanic
11:40PM 44.5488 164.6875 247° West 435 501 31,000  Level FlightAware Transoceanic
11:40PM 44.5500 164.7000 247° West 432 497 31,000  Level Oakland Oceanic (ODAPS)
11:41PM 44.5019 164.5325 247° West 435 501 31,000  Level FlightAware Transoceanic
11:42PM 44.4547 164.3777 247° West 435 501 31,000  Level FlightAware Transoceanic
11:43PM 44.4074 164.2233 247° West 435 501 31,000  Level FlightAware Transoceanic
11:44PM 44.3599 164.0690 247° West 435 501 31,000  Level FlightAware Transoceanic
11:45PM 44.3121 163.9150 247° West 435 501 31,000  Level FlightAware Transoceanic
11:46PM 44.2652 163.7713 246° West 432 497 31,000  Level FlightAware Transoceanic
11:47PM 44.2170 163.6174 246° West 432 497 31,000  Level FlightAware Transoceanic
11:48PM 44.1686 163.4638 246° West 432 497 31,000  Level FlightAware Transoceanic
11:49PM 44.1200 163.3104 246° West 432 497 31,000  Level FlightAware Transoceanic
11:50PM 44.0712 163.1573 246° West 432 497 31,000  Level FlightAware Transoceanic
11:51PM 44.0222 163.0044 246° West 432 497 31,000  Level FlightAware Transoceanic
11:52PM 43.9729 162.8517 246° West 432 497 31,000  Level FlightAware Transoceanic
11:53PM 43.9235 162.6994 246° West 432 497 31,000  Level FlightAware Transoceanic
11:54PM 43.8739 162.5472 246° West 432 497 31,000  Level FlightAware Transoceanic
11:55PM 43.8241 162.3954 245° Southwest 432 497 31,000  Level FlightAware Transoceanic
11:56PM 43.7740 162.2437 245° Southwest 432 497 31,000  Level FlightAware Transoceanic
11:57PM 43.7238 162.0924 245° Southwest 432 497 31,000  Level FlightAware Transoceanic
11:58PM 43.6734 161.9413 245° Southwest 432 497 31,000  Level FlightAware Transoceanic
11:59PM 43.6228 161.7904 245° Southwest 432 497 31,000  Level FlightAware Transoceanic
12:00AM 43.5719 161.6398 245° Southwest 432 497 31,000  Level FlightAware Transoceanic
12:01AM 43.5209 161.4895 245° Southwest 432 497 31,000  Level FlightAware Transoceanic
12:02AM 43.4697 161.3394 245° Southwest 432 497 31,000  Level FlightAware Transoceanic
12:03AM 43.4183 161.1895 245° Southwest 432 497 31,000  Level FlightAware Transoceanic
12:04AM 43.3667 161.0399 245° Southwest 432 497 31,000  Level FlightAware Transoceanic
12:05AM 43.3149 160.8906 244° Southwest 432 497 31,000  Level FlightAware Transoceanic
12:06AM 43.2629 160.7415 244° Southwest 432 497 31,000  Level FlightAware Transoceanic
12:07AM 43.2107 160.5927 244° Southwest 432 497 31,000  Level FlightAware Transoceanic
12:08AM 43.1583 160.4442 244° Southwest 432 497 31,000  Level FlightAware Transoceanic
12:09AM 43.1057 160.2959 244° Southwest 432 497 31,000  Level FlightAware Transoceanic
12:10AM 43.0530 160.1478 244° Southwest 432 497 31,000  Level FlightAware Transoceanic
12:11AM 43.0000 160.0000 247° West 432 497 31,000  Level FlightAware Transoceanic
12:12AM 42.9522 159.8485 247° West 432 497 31,000  Level FlightAware Transoceanic
12:13AM 42.9043 159.6973 247° West 432 497 31,000  Level FlightAware Transoceanic
12:14AM 42.8561 159.5462 246° West 432 497 31,000  Level FlightAware Transoceanic
12:15AM 42.8078 159.3955 246° West 432 497 31,000  Level FlightAware Transoceanic
12:16AM 42.7592 159.2449 246° West 432 497 31,000  Level FlightAware Transoceanic
12:17AM 42.7105 159.0946 246° West 432 497 31,000  Level FlightAware Transoceanic
12:18AM 42.6615 158.9445 246° West 432 497 31,000  Level FlightAware Transoceanic
12:19AM 42.6124 158.7947 246° West 432 497 31,000  Level FlightAware Transoceanic
12:20AM 42.5630 158.6451 246° West 432 497 31,000  Level FlightAware Transoceanic
12:21AM 42.5135 158.4957 246° West 432 497 31,000  Level FlightAware Transoceanic
12:22AM 42.4638 158.3466 246° West 432 497 31,000  Level FlightAware Transoceanic
12:23AM 42.4138 158.1977 246° West 432 497 31,000  Level FlightAware Transoceanic
12:24AM 42.3637 158.0491 245° Southwest 432 497 31,000  Level FlightAware Transoceanic
12:25AM 42.3134 157.9007 245° Southwest 432 497 31,000  Level FlightAware Transoceanic
12:26AM 42.2629 157.7525 245° Southwest 432 497 31,000  Level FlightAware Transoceanic
12:27AM 42.2123 157.6046 245° Southwest 432 497 31,000  Level FlightAware Transoceanic
12:28AM 42.1614 157.4569 245° Southwest 432 497 31,000  Level FlightAware Transoceanic
12:29AM 42.1103 157.3094 245° Southwest 432 497 31,000  Level FlightAware Transoceanic
12:30AM 42.0591 157.1622 245° Southwest 432 497 31,000  Level FlightAware Transoceanic
12:31AM 42.0076 157.0152 245° Southwest 432 497 31,000  Level FlightAware Transoceanic
12:32AM 41.9560 156.8685 245° Southwest 432 497 31,000  Level FlightAware Transoceanic
12:33AM 41.9042 156.7219 245° Southwest 432 497 31,000  Level FlightAware Transoceanic
12:34AM 41.8522 156.5757 244° Southwest 432 497 31,000  Level FlightAware Transoceanic
12:35AM 41.8000 156.4296 244° Southwest 432 497 31,000  Level FlightAware Transoceanic
12:36AM 41.7476 156.2838 244° Southwest 432 497 31,000  Level FlightAware Transoceanic
12:37AM 41.6951 156.1383 244° Southwest 432 497 31,000  Level FlightAware Transoceanic
12:38AM 41.6423 155.9930 244° Southwest 432 497 31,000  Level FlightAware Transoceanic
12:39AM 41.5894 155.8479 244° Southwest 432 497 31,000  Level FlightAware Transoceanic
12:40AM 41.5363 155.7030 244° Southwest 432 497 31,000  Level FlightAware Transoceanic
12:41AM 41.4830 155.5584 244° Southwest 432 497 31,000  Level FlightAware Transoceanic
12:42AM 41.4296 155.4141 244° Southwest 432 497 31,000  Level FlightAware Transoceanic
12:43AM 41.3759 155.2699 244° Southwest 432 497 31,000  Level FlightAware Transoceanic
12:44AM 41.3221 155.1261 243° Southwest 432 497 31,000  Level FlightAware Transoceanic
12:45AM 41.2681 154.9824 243° Southwest 432 497 31,000  Level FlightAware Transoceanic
12:46AM 41.2139 154.8390 243° Southwest 432 497 31,000  Level FlightAware Transoceanic
12:47AM 41.1596 154.6958 243° Southwest 432 497 31,000  Level FlightAware Transoceanic
12:48AM 41.1050 154.5529 243° Southwest 432 497 31,000  Level FlightAware Transoceanic
12:49AM 41.0503 154.4102 243° Southwest 432 497 31,000  Level FlightAware Transoceanic
12:50AM 40.9954 154.2677 243° Southwest 432 497 31,000  Level FlightAware Transoceanic
12:51AM 40.9404 154.1255 243° Southwest 432 497 31,000  Level FlightAware Transoceanic
12:52AM 40.8851 153.9835 243° Southwest 432 497 31,000  Level FlightAware Transoceanic
12:53AM 40.8297 153.8417 243° Southwest 432 497 31,000  Level FlightAware Transoceanic
12:54AM 40.7741 153.7002 243° Southwest 432 497 31,000  Level FlightAware Transoceanic
12:55AM 40.7184 153.5589 242° Southwest 432 497 31,000  Level FlightAware Transoceanic
12:56AM 40.6625 153.4179 242° Southwest 432 497 31,000  Level FlightAware Transoceanic
12:57AM 40.6064 153.2771 242° Southwest 432 497 31,000  Level FlightAware Transoceanic
12:58AM 40.5501 153.1365 242° Southwest 432 497 31,000  Level FlightAware Transoceanic
12:59AM 40.4936 152.9962 242° Southwest 432 497 31,000  Level FlightAware Transoceanic
01:00AM 40.4370 152.8561 242° Southwest 432 497 31,000  Level FlightAware Transoceanic
01:01AM 40.3803 152.7162 242° Southwest 432 497 31,000  Level FlightAware Transoceanic
01:02AM 40.3233 152.5766 242° Southwest 432 497 31,000  Level FlightAware Transoceanic
01:03AM 40.2662 152.4372 242° Southwest 432 497 31,000  Level FlightAware Transoceanic
01:04AM 40.2089 152.2981 242° Southwest 432 497 31,000  Level FlightAware Transoceanic
01:05AM 40.1515 152.1591 242° Southwest 432 497 31,000  Level FlightAware Transoceanic
01:06AM 40.0938 152.0205 241° Southwest 432 497 31,000  Level FlightAware Transoceanic
01:07AM 40.0361 151.8820 241° Southwest 432 497 31,000  Level FlightAware Transoceanic
01:08AM 39.9781 151.7438 241° Southwest 432 497 31,000  Level FlightAware Transoceanic
01:09AM 39.9200 151.6058 241° Southwest 432 497 31,000  Level FlightAware Transoceanic
01:10AM 39.8618 151.4681 241° Southwest 432 497 31,000  Level FlightAware Transoceanic
01:11AM 39.8033 151.3306 241° Southwest 432 497 31,000  Level FlightAware Transoceanic
01:12AM 39.7447 151.1933 241° Southwest 432 497 31,000  Level FlightAware Transoceanic
01:13AM 39.6860 151.0562 241° Southwest 432 497 31,000  Level FlightAware Transoceanic
01:14AM 39.6270 150.9194 241° Southwest 432 497 31,000  Level FlightAware Transoceanic
01:15AM 39.5680 150.7829 241° Southwest 432 497 31,000  Level FlightAware Transoceanic
01:16AM 39.5087 150.6465 241° Southwest 432 497 31,000  Level FlightAware Transoceanic
01:17AM 39.4493 150.5104 240° Southwest 432 497 31,000  Level FlightAware Transoceanic
01:18AM 39.3898 150.3745 240° Southwest 432 497 31,000  Level FlightAware Transoceanic
01:19AM 39.3301 150.2389 240° Southwest 432 497 31,000  Level FlightAware Transoceanic
01:20AM 39.2702 150.1035 240° Southwest 432 497 31,000  Level FlightAware Transoceanic
01:21AM 39.2102 149.9683 240° Southwest 432 497 31,000 60 Level FlightAware Transoceanic
01:22AM 39.1532 149.8247 243° Southwest  Level FlightAware Approximate
01:23AM 39.0961 149.6813 243° Southwest  Level FlightAware Approximate
01:24AM 39.0890 149.6801 240° Southwest  Level FlightAware Approximate
01:25AM 39.0265 149.5406 240° Southwest  Level FlightAware Approximate
01:26AM 38.9639 149.4014 240° Southwest  Level FlightAware Approximate
01:27AM 38.9010 149.2624 240° Southwest  Level FlightAware Approximate
01:28AM 38.8380 149.1237 240° Southwest  Level FlightAware Approximate
01:29AM 38.7749 148.9853 240° Southwest  Level FlightAware Approximate
01:30AM 38.7116 148.8470 240° Southwest  Level FlightAware Approximate
01:31AM 38.6481 148.7091 240° Southwest  Level FlightAware Approximate
01:32AM 38.5844 148.5713 239° Southwest  Level FlightAware Approximate
01:33AM 38.5206 148.4338 239° Southwest  Level FlightAware Approximate
01:34AM 38.4566 148.2966 239° Southwest  Level FlightAware Approximate
01:35AM 38.3925 148.1596 239° Southwest  Level FlightAware Approximate
01:36AM 38.3282 148.0228 239° Southwest  Level FlightAware Approximate
01:37AM 38.2638 147.8863 239° Southwest  Level FlightAware Approximate
01:38AM 38.1992 147.7500 239° Southwest  Level FlightAware Approximate
01:39AM 38.1350 147.6136 239° Southwest  Level FlightAware Approximate
01:40AM 38.0707 147.4773 239° Southwest  Level FlightAware Approximate
01:41AM 38.0063 147.3412 239° Southwest  Level FlightAware Approximate
01:42AM 37.9418 147.2054 239° Southwest  Level FlightAware Approximate
01:43AM 37.8771 147.0698 239° Southwest  Level FlightAware Approximate
01:44AM 37.8122 146.9344 239° Southwest  Level FlightAware Approximate
01:45AM 37.7472 146.7993 239° Southwest  Level FlightAware Approximate
01:46AM 37.6820 146.6644 239° Southwest  Level FlightAware Approximate
01:47AM 37.6167 146.5298 239° Southwest  Level FlightAware Approximate
01:48AM 37.5513 146.3954 238° Southwest  Level FlightAware Approximate
01:49AM 37.4856 146.2612 238° Southwest  Level FlightAware Approximate
01:50AM 37.4199 146.1272 238° Southwest  Level FlightAware Approximate
01:51AM 37.3539 145.9935 238° Southwest  Level FlightAware Approximate
01:52AM 37.2879 145.8601 238° Southwest  Level FlightAware Approximate
01:53AM 37.2216 145.7268 238° Southwest  Level FlightAware Approximate
01:54AM 37.1766 145.5842 263° West  Level FlightAware Approximate
01:55AM 37.1604 145.4286 263° West  Level FlightAware Approximate
01:56AM 37.1440 145.2731 263° West  Level FlightAware Approximate
01:57AM 37.1274 145.1177 262° West  Level FlightAware Approximate
01:58AM 37.1106 144.9623 262° West  Level FlightAware Approximate
01:59AM 37.0936 144.8070 262° West  Level FlightAware Approximate
02:00AM 37.0764 144.6517 262° West  Level FlightAware Approximate
02:01AM 37.0590 144.4966 262° West  Level FlightAware Approximate
02:02AM 37.0414 144.3415 262° West  Level FlightAware Approximate
02:03AM 37.0236 144.1865 262° West  Level FlightAware Approximate
02:04AM 37.0056 144.0315 262° West  Level FlightAware Approximate
02:05AM 36.9388 143.9075 225° Southwest  Level FlightAware Approximate
02:06AM 36.8498 143.7977 225° Southwest  Level FlightAware Approximate
02:07AM 36.7607 143.6882 225° Southwest  Level FlightAware Approximate
02:08AM 36.6715 143.5789 225° Southwest  Level FlightAware Approximate
02:09AM 36.5821 143.4698 224° Southwest  Level FlightAware Approximate
02:10AM 36.4928 143.3610 224° Southwest  Level FlightAware Approximate
02:11AM 36.4033 143.2525 224° Southwest  Level FlightAware Approximate
02:12AM 36.3137 143.1442 224° Southwest  Level FlightAware Approximate
02:13AM 36.2240 143.0362 224° Southwest  Level FlightAware Approximate
02:14AM 36.1342 142.9284 224° Southwest  Level FlightAware Approximate
02:15AM 36.0443 142.8208 224° Southwest  Level FlightAware Approximate
02:16AM 35.9543 142.7135 224° Southwest  Level FlightAware Approximate
02:17AM 35.8643 142.6064 224° Southwest  Level FlightAware Approximate
02:17AM 36.1830 143.3790 236° Southwest 435 501 36,000  Level FlightAware
02:18AM 35.7840 142.4894 236° Southwest  Level FlightAware Approximate
02:18AM 36.1400 143.2930 238° Southwest 435 501 36,000  Level FlightAware
02:19AM 36.1030 143.2210 238° Southwest 435 501 36,000  Level FlightAware
02:19AM 36.0500 143.1150 238° Southwest 427 491 36,000  Level FlightAware
02:20AM 36.0040 143.0240 238° Southwest 423 487 36,000  Level FlightAware
02:21AM 35.9490 142.9160 238° Southwest 419 482 36,000  Level FlightAware
02:22AM 35.9090 142.8380 238° Southwest 416 479 36,000  Level FlightAware
02:22AM 35.8680 142.7560 238° Southwest 411 473 36,000  Level FlightAware
02:23AM 35.8310 142.6860 237° Southwest 412 474 36,000  Level FlightAware
02:24AM 35.7870 142.5990 238° Southwest 411 473 36,000  Level FlightAware
02:24AM 35.7390 142.5070 237° Southwest 406 467 36,000  Level FlightAware
02:25AM 35.6990 142.4290 238° Southwest 404 465 36,000  Level FlightAware
02:26AM 35.6610 142.3550 238° Southwest 403 464 36,000  Level FlightAware
02:26AM 35.6120 142.2610 237° Southwest 401 461 36,000  Level FlightAware
02:27AM 35.5820 142.2040 237° Southwest 401 461 36,000  Level FlightAware
02:28AM 35.5330 142.1090 238° Southwest 402 463 36,000  Level FlightAware
02:29AM 35.4910 142.0290 237° Southwest 403 464 36,000  Level FlightAware
02:29AM 35.4520 141.9540 237° Southwest 403 464 36,000  Level FlightAware
02:30AM 35.4100 141.8750 237° Southwest 403 464 36,000  Level FlightAware
02:31AM 35.3640 141.7860 238° Southwest 397 457 36,000  Level FlightAware
02:31AM 35.3150 141.6940 237° Southwest 400 460 36,000  Level FlightAware
02:32AM 35.2760 141.6210 237° Southwest 398 458 36,000  Level FlightAware
02:33AM 35.2310 141.5350 237° Southwest 397 457 36,000  Level FlightAware
02:33AM 35.1910 141.4600 237° Southwest 396 456 36,000  Level FlightAware
02:34AM 35.1570 141.3950 237° Southwest 396 456 36,000  Level FlightAware
02:35AM 35.1080 141.3030 237° Southwest 391 450 36,000  Level FlightAware
02:36AM 35.0700 141.2320 237° Southwest 387 445 36,000  Level FlightAware
02:36AM 35.0280 141.1540 237° Southwest 383 441 36,000  Level FlightAware
02:37AM 34.9850 141.0730 237° Southwest 381 438 36,000  Level FlightAware
02:38AM 34.9480 141.0060 236° Southwest 378 435 36,000  Level FlightAware
02:38AM 34.9090 140.9320 237° Southwest 377 434 36,000 240 Level FlightAware
02:39AM 34.8660 140.8540 236° Southwest 376 433 36,400  Climbing FlightAware
02:40AM 34.8140 140.7570 237° Southwest 378 435 36,000 -300 Descending FlightAware
02:41AM 34.7820 140.6980 237° Southwest 379 436 36,000  Level FlightAware
02:41AM 34.7400 140.6210 236° Southwest 380 437 36,000  Level FlightAware
02:42AM 34.6880 140.5250 237° Southwest 380 437 36,000  Level FlightAware
02:43AM 34.6370 140.4320 236° Southwest 378 435 36,000  Level FlightAware
02:44AM 34.5960 140.3580 236° Southwest 370 426 36,000  Level FlightAware
02:44AM 34.5630 140.2970 237° Southwest 368 423 36,000  Level FlightAware
02:45AM 34.5160 140.2130 236° Southwest 376 433 36,000  Level FlightAware
02:46AM 34.4640 140.1180 236° Southwest 377 434 36,000  Level FlightAware
02:47AM 34.4250 140.0470 236° Southwest 379 436 36,000  Level FlightAware
02:47AM 34.3830 139.9710 236° Southwest 379 436 36,000  Level FlightAware
02:48AM 34.3430 139.8990 236° Southwest 380 437 36,000  Level FlightAware
02:49AM 34.3060 139.8330 236° Southwest 381 438 36,000  Level FlightAware
02:50AM 34.2620 139.7530 236° Southwest 384 442 36,000  Level FlightAware
02:50AM 34.2200 139.6780 236° Southwest 385 443 36,000  Level FlightAware
02:51AM 34.1820 139.6100 236° Southwest 384 442 36,000  Level FlightAware
02:52AM 34.1310 139.5190 236° Southwest 378 435 36,000  Level FlightAware
02:52AM 34.1070 139.4290 252° West 370 426 36,000  Level FlightAware
02:53AM 34.0940 139.3490 259° West 373 429 36,000  Level FlightAware
02:54AM 34.0810 139.2680 259° West 371 427 36,000  Level FlightAware
02:54AM 34.0650 139.1740 258° West 370 426 36,000  Level FlightAware
02:55AM 34.0520 139.0930 259° West 371 427 36,000  Level FlightAware
02:56AM 34.0390 139.0170 258° West 369 425 36,000  Level FlightAware
02:57AM 34.0230 138.9250 258° West 369 425 36,000  Level FlightAware
02:58AM 33.9990 138.7820 259° West 368 423 36,000  Level FlightAware
02:59AM 33.9750 138.6470 258° West 368 423 36,000  Level FlightAware
02:59AM 33.9620 138.5690 259° West 368 423 36,000  Level FlightAware
03:00AM 33.9480 138.4870 258° West 368 423 36,000  Level FlightAware
03:01AM 33.9310 138.3890 258° West 367 422 36,000  Level FlightAware
03:02AM 33.9150 138.2980 258° West 367 422 36,000  Level FlightAware
03:02AM 33.9010 138.2220 258° West 368 423 36,000  Level FlightAware
03:03AM 33.8870 138.1370 259° West 367 422 36,000  Level FlightAware
03:04AM 33.8740 138.0650 258° West 366 421 36,000  Level FlightAware
03:04AM 33.8570 137.9690 258° West 365 420 36,000  Level FlightAware
03:05AM 33.8420 137.8860 258° West 365 420 36,000  Level FlightAware
03:06AM 33.8260 137.7970 258° West 366 421 36,000  Level FlightAware
03:07AM 33.8110 137.7170 257° West 368 423 36,000 180 Level FlightAware
03:07AM 33.7950 137.6260 258° West 372 428 36,300 720 Climbing FlightAware
03:08AM 33.7800 137.5460 257° West 372 428 37,100 1,200 Climbing FlightAware
03:09AM 33.7660 137.4680 258° West 367 422 37,900 600 Climbing FlightAware
03:09AM 33.7490 137.3760 257° West 368 423 38,000 60 Climbing FlightAware
03:10AM 33.7350 137.2970 258° West 367 422 38,000  Level FlightAware
03:11AM 33.7180 137.2070 257° West 367 422 38,000  Level FlightAware
03:11AM 33.7030 137.1270 257° West 366 421 38,000  Level FlightAware
03:12AM 33.6890 137.0490 258° West 364 419 38,000  Level FlightAware
03:13AM 33.6720 136.9600 257° West 363 418 38,000  Level FlightAware
03:14AM 33.6570 136.8800 257° West 364 419 38,000  Level FlightAware
03:14AM 33.6420 136.8020 257° West 363 418 38,000  Level FlightAware
03:15AM 33.6260 136.7140 258° West 362 417 38,000  Level FlightAware
03:16AM 33.6090 136.6270 257° West 363 418 38,000  Level FlightAware
03:16AM 33.5940 136.5470 257° West 364 419 38,000  Level FlightAware
03:17AM 33.5790 136.4690 257° West 363 418 38,000  Level FlightAware
03:18AM 33.5640 136.3900 257° West 364 419 38,000  Level FlightAware
03:18AM 33.5470 136.3020 257° West 365 420 38,000  Level FlightAware
03:19AM 33.5320 136.2230 257° West 365 420 38,000  Level FlightAware
03:20AM 33.5160 136.1440 256° West 366 421 38,000  Level FlightAware
03:21AM 33.4990 136.0570 257° West 367 422 38,000  Level FlightAware
03:21AM 33.4840 135.9760 258° West 367 422 38,000  Level FlightAware
03:22AM 33.4670 135.8900 257° West 368 423 38,000  Level FlightAware
03:23AM 33.4510 135.8090 257° West 367 422 38,000  Level FlightAware
03:23AM 33.4310 135.7210 255° West 368 423 38,000  Level FlightAware
03:24AM 33.4120 135.6430 254° West 370 426 38,000  Level FlightAware
03:25AM 33.3930 135.5630 254° West 371 427 38,000  Level FlightAware
03:25AM 33.3720 135.4740 254° West 370 426 38,000  Level FlightAware
03:26AM 33.3530 135.3960 254° West 370 426 38,000  Level FlightAware
03:27AM 33.3330 135.3190 253° West 368 423 38,000  Level FlightAware
03:28AM 33.3100 135.2320 252° West 366 421 38,000  Level FlightAware
03:28AM 33.2900 135.1540 253° West 366 421 38,000  Level FlightAware
03:29AM 33.2670 135.0680 252° West 366 421 38,000  Level FlightAware
03:30AM 33.2470 134.9910 253° West 366 421 38,000  Level FlightAware
03:30AM 33.2290 134.9150 254° West 367 422 38,000  Level FlightAware
03:31AM 33.2050 134.8160 254° West 370 426 38,000  Level FlightAware
03:32AM 33.1860 134.7360 254° West 372 428 38,000  Level FlightAware
03:32AM 33.1660 134.6570 253° West 374 430 38,000  Level FlightAware
03:33AM 33.1450 134.5710 254° West 376 433 38,000  Level FlightAware
03:34AM 33.1250 134.4900 254° West 377 434 38,000  Level FlightAware
03:35AM 33.1040 134.4020 254° West 377 434 38,000  Level FlightAware
03:35AM 33.0830 134.3200 253° West 378 435 38,000  Level FlightAware
03:36AM 33.0630 134.2390 254° West 378 435 38,000  Level FlightAware
03:37AM 33.0420 134.1510 254° West 376 433 38,000  Level FlightAware
03:37AM 33.0230 134.0710 254° West 376 433 38,000  Level FlightAware
03:38AM 33.0010 133.9920 252° West 378 435 38,000  Level FlightAware
03:39AM 32.9680 133.9070 245° Southwest 377 434 38,000  Level FlightAware
03:39AM 32.9440 133.8420 246° West 375 432 38,000  Level FlightAware
03:40AM 32.9100 133.7450 247° West 376 433 38,000  Level FlightAware
03:41AM 32.8840 133.6700 248° West 374 430 38,000  Level FlightAware
03:42AM 32.8480 133.5690 247° West 369 425 38,000  Level FlightAware
03:43AM 32.8130 133.4770 246° West 365 420 38,000  Level FlightAware
03:43AM 32.7830 133.3950 247° West 364 419 38,000  Level FlightAware
03:44AM 32.7550 133.3190 246° West 362 417 38,000  Level FlightAware
03:45AM 32.7190 133.2210 246° West 364 419 38,000  Level FlightAware
03:46AM 32.6890 133.1430 245° Southwest 366 421 38,000  Level FlightAware
03:46AM 32.6560 133.0520 247° West 366 421 38,000  Level FlightAware
03:47AM 32.6330 132.9930 245° Southwest 367 422 38,000  Level FlightAware
03:48AM 32.6040 132.9140 246° West 368 423 38,000  Level FlightAware
03:49AM 32.5690 132.8230 245° Southwest 369 425 38,000  Level FlightAware
03:49AM 32.5440 132.7560 246° West 371 427 38,000  Level FlightAware
03:50AM 32.5130 132.6730 246° West 372 428 38,000  Level FlightAware
03:51AM 32.4810 132.5890 246° West 373 429 38,000  Level FlightAware
03:51AM 32.4520 132.5110 246° West 371 427 38,000  Level FlightAware
03:52AM 32.4210 132.4320 245° Southwest 370 426 38,000  Level FlightAware
03:53AM 32.3890 132.3490 245° Southwest 369 425 38,000  Level FlightAware
03:53AM 32.3610 132.2750 246° West 369 425 38,000  Level FlightAware
03:54AM 32.3380 132.2140 246° West 370 426 38,000  Level FlightAware
03:55AM 32.3000 132.1170 245° Southwest 372 428 38,000  Level FlightAware
03:56AM 32.2720 132.0430 246° West 372 428 38,000  Level FlightAware
03:56AM 32.2350 131.9630 241° Southwest 378 435 38,000  Level FlightAware
03:57AM 32.1950 131.8940 236° Southwest 378 435 38,000  Level FlightAware
03:58AM 32.1570 131.8220 238° Southwest 378 435 38,000  Level FlightAware
03:58AM 32.1230 131.7590 238° Southwest 378 435 38,000  Level FlightAware
03:59AM 32.0830 131.6830 238° Southwest 379 436 38,000  Level FlightAware
04:00AM 32.0410 131.6030 238° Southwest 380 437 38,000  Level FlightAware
04:00AM 32.0050 131.5380 237° Southwest 380 437 38,000  Level FlightAware
04:01AM 31.9580 131.4550 236° Southwest 375 432 38,000  Level FlightAware
04:02AM 31.9210 131.3860 238° Southwest 380 437 38,000  Level FlightAware
04:03AM 31.8800 131.3130 237° Southwest 380 437 38,000  Level FlightAware
04:03AM 31.8390 131.2390 237° Southwest 380 437 38,000  Level FlightAware
04:04AM 31.8040 131.1750 237° Southwest 380 437 38,000  Level FlightAware
04:05AM 31.7570 131.0920 236° Southwest 380 437 38,000  Level FlightAware
04:05AM 31.7230 131.0300 237° Southwest 379 436 38,000  Level FlightAware
04:06AM 31.6890 130.9700 236° Southwest 381 438 38,000  Level FlightAware
04:07AM 31.6370 130.8760 237° Southwest 380 437 38,000  Level FlightAware
04:07AM 31.6010 130.8130 236° Southwest 381 438 38,000  Level FlightAware
04:08AM 31.5560 130.7330 237° Southwest 380 437 38,000  Level FlightAware
04:09AM 31.5200 130.6680 237° Southwest 380 437 38,000  Level FlightAware
04:10AM 31.4780 130.5940 236° Southwest 381 438 38,000  Level FlightAware
04:10AM 31.4340 130.5160 237° Southwest 382 440 38,000  Level FlightAware
04:11AM 31.3960 130.4500 236° Southwest 382 440 38,000  Level FlightAware
04:12AM 31.3530 130.3730 237° Southwest 383 441 38,000  Level FlightAware
04:12AM 31.3130 130.3030 236° Southwest 381 438 38,000  Level FlightAware
04:13AM 31.2630 130.2150 236° Southwest 379 436 38,000  Level FlightAware
04:14AM 31.2230 130.1450 236° Southwest 379 436 38,000  Level FlightAware
04:15AM 31.1810 130.0720 236° Southwest 379 436 38,000  Level FlightAware
04:15AM 31.1410 130.0030 236° Southwest 379 436 38,000  Level FlightAware
04:16AM 31.1080 129.9450 236° Southwest 379 436 38,000  Level FlightAware
04:17AM 31.0740 129.8880 235° Southwest 379 436 38,000  Level FlightAware
04:18AM 31.0330 129.8160 236° Southwest 379 436 38,000  Level FlightAware
04:18AM 30.9990 129.7580 236° Southwest 379 436 38,000  Level FlightAware
04:19AM 30.9660 129.7000 236° Southwest 379 436 38,000  Level FlightAware
04:20AM 30.9330 129.6430 236° Southwest 379 436 38,000  Level FlightAware
04:20AM 30.8990 129.5850 236° Southwest 379 436 38,000  Level FlightAware
04:21AM 30.8660 129.5270 236° Southwest 379 436 38,000  Level FlightAware
04:22AM 30.8240 129.4550 236° Southwest 379 436 38,000  Level FlightAware
04:22AM 30.7910 129.3980 236° Southwest 379 436 38,000  Level FlightAware
04:23AM 30.7580 129.3400 237° Southwest 379 436 38,000  Level FlightAware
04:24AM 30.7240 129.2830 235° Southwest 379 436 38,000  Level FlightAware
04:25AM 30.6830 129.2110 237° Southwest 379 436 38,000  Level FlightAware
04:27AM 30.5540 128.9836 237° Southwest  Level FlightAware Approximate
04:28AM 30.4882 128.8681 237° Southwest  Level FlightAware Approximate
04:29AM 30.4224 128.7529 236° Southwest  Level FlightAware Approximate
04:30AM 30.3564 128.6378 236° Southwest  Level FlightAware Approximate
04:31AM 30.2904 128.5228 236° Southwest  Level FlightAware Approximate
04:32AM 30.2242 128.4080 236° Southwest  Level FlightAware Approximate
04:33AM 30.1580 128.2934 236° Southwest  Level FlightAware Approximate
04:34AM 30.0916 128.1789 236° Southwest  Level FlightAware Approximate
04:35AM 30.0252 128.0646 236° Southwest  Level FlightAware Approximate
04:36AM 29.9475 127.9565 232° Southwest  Level FlightAware Approximate
04:37AM 29.8735 127.8487 232° Southwest  Level FlightAware Approximate
04:38AM 29.7995 127.7410 232° Southwest  Level FlightAware Approximate
04:39AM 29.7253 127.6335 232° Southwest  Level FlightAware Approximate
04:40AM 29.6511 127.5261 232° Southwest  Level FlightAware Approximate
04:41AM 29.5768 127.4189 231° Southwest  Level FlightAware Approximate
04:42AM 29.5024 127.3118 231° Southwest  Level FlightAware Approximate
04:43AM 29.4280 127.2049 231° Southwest  Level FlightAware Approximate
04:44AM 29.3534 127.0982 231° Southwest  Level FlightAware Approximate
04:45AM 29.2788 126.9916 231° Southwest  Level FlightAware Approximate
04:46AM 29.2040 126.8852 231° Southwest  Level FlightAware Approximate
04:47AM 29.1292 126.7789 231° Southwest  Level FlightAware Approximate
04:48AM 29.0543 126.6728 231° Southwest  Level FlightAware Approximate
04:49AM 28.9782 126.5679 230° Southwest  Level FlightAware Approximate
04:50AM 28.9020 126.4632 230° Southwest  Level FlightAware Approximate
04:51AM 28.8256 126.3586 230° Southwest  Level FlightAware Approximate
04:52AM 28.7492 126.2542 230° Southwest  Level FlightAware Approximate
04:53AM 28.6727 126.1500 230° Southwest  Level FlightAware Approximate
04:54AM 28.5961 126.0459 230° Southwest  Level FlightAware Approximate
04:55AM 28.5199 125.9417 231° Southwest  Level FlightAware Approximate
04:56AM 28.4441 125.8370 231° Southwest  Level FlightAware Approximate
04:57AM 28.3682 125.7324 230° Southwest  Level FlightAware Approximate
04:58AM 28.2923 125.6281 230° Southwest  Level FlightAware Approximate
04:59AM 28.2163 125.5238 230° Southwest  Level FlightAware Approximate
05:00AM 28.1402 125.4197 230° Southwest  Level FlightAware Approximate
05:01AM 28.0640 125.3158 230° Southwest  Level FlightAware Approximate
05:02AM 27.9877 125.2120 230° Southwest  Level FlightAware Approximate
05:03AM 27.9114 125.1084 230° Southwest  Level FlightAware Approximate
05:04AM 27.8350 125.0049 230° Southwest  Level FlightAware Approximate
05:05AM 27.7585 124.9016 230° Southwest  Level FlightAware Approximate
05:06AM 27.6819 124.7984 230° Southwest  Level FlightAware Approximate
05:07AM 27.6052 124.6953 230° Southwest  Level FlightAware Approximate
05:08AM 27.5285 124.5924 230° Southwest  Level FlightAware Approximate
05:09AM 27.4517 124.4896 230° Southwest  Level FlightAware Approximate
05:10AM 27.3749 124.3870 230° Southwest  Level FlightAware Approximate
05:11AM 27.2979 124.2845 230° Southwest  Level FlightAware Approximate
05:12AM 27.2209 124.1822 230° Southwest  Level FlightAware Approximate
05:13AM 27.1438 124.0800 230° Southwest  Level FlightAware Approximate
05:14AM 27.0763 123.9740 230° Southwest  Level FlightAware Approximate
05:15AM 26.9991 123.8720 230° Southwest  Level FlightAware Approximate
05:16AM 26.9218 123.7701 230° Southwest  Level FlightAware Approximate
05:17AM 26.8445 123.6684 230° Southwest  Level FlightAware Approximate
05:18AM 26.7671 123.5668 230° Southwest  Level FlightAware Approximate
05:19AM 26.6896 123.4654 229° Southwest  Level FlightAware Approximate
05:20AM 26.6121 123.3641 229° Southwest  Level FlightAware Approximate
05:21AM 26.5345 123.2630 229° Southwest  Level FlightAware Approximate
05:22AM 26.4568 123.1620 229° Southwest  Level FlightAware Approximate
05:23AM 26.3790 123.0611 229° Southwest  Level FlightAware Approximate
05:24AM 26.3012 122.9603 229° Southwest  Level FlightAware Approximate
05:24AM 26.5650 123.3040 229° Southwest 387 445 38,000  Level FlightAware
05:24AM 26.5110 123.2340 229° Southwest 387 445 38,000  Level FlightAware
05:25AM 26.4660 123.1740 230° Southwest 388 447 38,000  Level FlightAware
05:26AM 26.4170 123.1120 229° Southwest 387 445 38,000  Level FlightAware
05:26AM 26.3700 123.0490 230° Southwest 388 447 38,000  Level FlightAware
05:27AM 26.3210 122.9850 230° Southwest 388 447 38,000  Level FlightAware
05:28AM 26.2680 122.9150 230° Southwest 387 445 38,000  Level FlightAware
05:28AM 26.2210 122.8530 230° Southwest 388 447 38,000  Level FlightAware
05:29AM 26.1770 122.7950 230° Southwest 388 447 38,000  Level FlightAware
05:30AM 26.1240 122.7260 229° Southwest 388 447 38,000  Level FlightAware
05:31AM 26.0770 122.6630 230° Southwest 388 447 38,000  Level FlightAware
05:31AM 26.0310 122.6030 230° Southwest 388 447 38,000  Level FlightAware
05:32AM 25.9780 122.5330 230° Southwest 388 447 38,000  Level FlightAware
05:33AM 25.9340 122.4760 229° Southwest 389 448 38,000  Level FlightAware
05:33AM 25.8780 122.4060 228° Southwest 389 448 38,000  Level FlightAware
05:34AM 25.8290 122.3450 228° Southwest 388 447 38,000  Level FlightAware
05:35AM 25.7820 122.2860 229° Southwest 386 444 38,000  Level FlightAware
05:35AM 25.7290 122.2190 229° Southwest 386 444 38,000  Level FlightAware
05:36AM 25.6800 122.1590 228° Southwest 386 444 38,000  Level FlightAware
05:37AM 25.6280 122.0940 228° Southwest 386 444 38,000  Level FlightAware
05:38AM 25.5820 122.0350 229° Southwest 386 444 38,000  Level FlightAware
05:38AM 25.5290 121.9670 229° Southwest 385 443 38,000  Level FlightAware
05:39AM 25.4770 121.9020 228° Southwest 386 444 38,000  Level FlightAware
05:40AM 25.4350 121.8480 229° Southwest 387 445 38,000  Level FlightAware
05:40AM 25.3870 121.7870 229° Southwest 386 444 38,000  Level FlightAware
05:41AM 25.3350 121.7210 229° Southwest 388 447 38,000  Level FlightAware
05:42AM 25.2880 121.6620 229° Southwest 389 448 38,000  Level FlightAware
05:42AM 25.2410 121.6020 229° Southwest 390 449 38,000  Level FlightAware
05:43AM 25.1920 121.5410 228° Southwest 391 450 38,000  Level FlightAware
05:44AM 25.1360 121.4720 228° Southwest 394 453 38,000  Level FlightAware
05:44AM 25.0870 121.4130 227° Southwest 395 455 38,000  Level FlightAware
05:45AM 25.0340 121.3490 228° Southwest 396 456 38,000  Level FlightAware
05:46AM 24.9850 121.2900 228° Southwest 396 456 38,000  Level FlightAware
05:46AM 24.9460 121.2440 227° Southwest 396 456 38,000  Level FlightAware
05:47AM 24.8930 121.1810 227° Southwest 396 456 38,000  Level FlightAware
05:48AM 24.8500 121.1310 227° Southwest 396 456 38,000  Level FlightAware
05:49AM 24.8080 121.0800 228° Southwest 396 456 38,000  Level FlightAware
05:49AM 24.7650 121.0300 227° Southwest 396 456 38,000  Level FlightAware
05:50AM 24.6830 120.9260 229° Southwest 399 459 38,000  Level FlightAware
05:51AM 24.6260 120.8570 228° Southwest 400 460 38,000  Level FlightAware
05:51AM 24.5750 120.7950 228° Southwest 401 461 38,000  Level FlightAware
05:52AM 24.5210 120.7310 227° Southwest 402 463 38,000  Level FlightAware
05:53AM 24.4690 120.6700 227° Southwest 402 463 38,000  Level FlightAware
05:53AM 24.4240 120.6150 228° Southwest 402 463 38,000  Level FlightAware
05:54AM 24.3720 120.5530 227° Southwest 403 464 38,000  Level FlightAware
05:55AM 24.2940 120.4600 227° Southwest 403 464 38,000  Level FlightAware
05:56AM 24.2400 120.3970 227° Southwest 403 464 38,000  Level FlightAware
05:56AM 24.1940 120.3420 227° Southwest 404 465 38,000  Level FlightAware
05:57AM 24.1360 120.2730 227° Southwest 406 467 38,000  Level FlightAware
05:58AM 24.0750 120.2010 227° Southwest 406 467 38,000  Level FlightAware
05:59AM 24.0250 120.1420 227° Southwest 406 467 38,000  Level FlightAware
05:59AM 23.9770 120.0850 227° Southwest 407 468 38,000  Level FlightAware
06:00AM 23.9160 120.0130 227° Southwest 406 467 38,000  Level FlightAware
06:01AM 23.8700 119.9590 227° Southwest 406 467 38,000  Level FlightAware
06:01AM 23.8180 119.8980 227° Southwest 406 467 38,000  Level FlightAware
06:02AM 23.7530 119.8220 227° Southwest 407 468 38,000  Level FlightAware
06:03AM 23.7040 119.7650 227° Southwest 408 470 38,000  Level FlightAware
06:04AM 23.6450 119.6960 227° Southwest 408 470 38,000  Level FlightAware
06:04AM 23.5960 119.6350 229° Southwest 406 467 38,000  Level FlightAware
06:05AM 23.5470 119.5550 236° Southwest 406 467 38,000  Level FlightAware
06:06AM 23.5110 119.4920 238° Southwest 405 466 38,000  Level FlightAware
06:07AM 23.4540 119.3930 238° Southwest 407 468 38,000  Level FlightAware
06:07AM 23.4120 119.3220 237° Southwest 406 467 38,000  Level FlightAware
06:08AM 23.3690 119.2470 238° Southwest 406 467 38,000  Level FlightAware
06:09AM 23.3300 119.1810 237° Southwest 406 467 38,000  Level FlightAware
06:09AM 23.2870 119.1070 238° Southwest 405 466 38,000  Level FlightAware
06:10AM 23.2450 119.0350 238° Southwest 406 467 38,000  Level FlightAware
06:11AM 23.2050 118.9650 238° Southwest 405 466 38,000  Level FlightAware
06:11AM 23.1680 118.9040 237° Southwest 405 466 38,000  Level FlightAware
06:12AM 23.1190 118.8190 238° Southwest 406 467 38,000  Level FlightAware
06:13AM 23.0750 118.7460 237° Southwest 408 470 38,000  Level FlightAware
06:14AM 23.0220 118.6560 237° Southwest 409 471 38,000  Level FlightAware
06:15AM 22.9870 118.5980 237° Southwest 409 471 38,000  Level FlightAware
06:15AM 22.9320 118.5030 238° Southwest 409 471 38,000  Level FlightAware
06:16AM 22.8900 118.4320 237° Southwest 408 470 38,000  Level FlightAware
06:17AM 22.8440 118.3550 237° Southwest 408 470 38,000  Level FlightAware
06:17AM 22.8010 118.2830 237° Southwest 409 471 38,000  Level FlightAware
06:18AM 22.7580 118.2110 237° Southwest 410 472 38,000  Level FlightAware
06:19AM 22.7150 118.1390 237° Southwest 410 472 38,000  Level FlightAware
06:19AM 22.6720 118.0670 237° Southwest 411 473 38,000  Level FlightAware
06:20AM 22.6300 117.9970 237° Southwest 411 473 38,000  Level FlightAware
06:21AM 22.5870 117.9260 237° Southwest 411 473 38,000  Level FlightAware
06:22AM 22.5380 117.8430 237° Southwest 411 473 38,000  Level FlightAware
06:22AM 22.5050 117.7870 237° Southwest 410 472 38,000  Level FlightAware
06:23AM 22.4560 117.7050 237° Southwest 411 473 38,000  Level FlightAware
06:24AM 22.4120 117.6310 237° Southwest 412 474 38,000  Level FlightAware
06:24AM 22.3780 117.5740 237° Southwest 412 474 38,000  Level FlightAware
06:25AM 22.3310 117.4970 237° Southwest 412 474 38,000  Level FlightAware
06:26AM 22.2960 117.4380 237° Southwest 412 474 38,000  Level FlightAware
06:26AM 22.2610 117.3790 237° Southwest 412 474 38,000  Level FlightAware
06:27AM 22.2170 117.3060 237° Southwest 412 474 38,000  Level FlightAware
06:28AM 22.1810 117.2470 237° Southwest 412 474 38,000  Level FlightAware
06:29AM 22.1460 117.1880 237° Southwest 412 474 38,000 -180 Level FlightAware
06:29AM 22.3240 116.9640 311° West 409 471 37,800 -480 Descending FlightAware
06:30AM 22.3210 116.8690 268° West 410 472 37,300 -360 Descending FlightAware
06:31AM 22.3190 116.8000 268° West 410 472 37,300 -1,200 Level FlightAware
06:32AM 22.3170 116.6990 269° West 411 473 35,600 -1,200 Descending FlightAware
06:32AM 22.3150 116.6290 268° West 411 473 35,600  Level FlightAware
06:33AM 22.3120 116.5420 268° West 411 473 35,600  Level FlightAware
06:34AM 22.3100 116.4720 268° West 411 473 35,600  Level FlightAware
06:34AM 22.3080 116.4020 268° West 411 473 35,600  Level FlightAware
06:35AM 22.3060 116.3320 268° West 411 473 35,600  Level FlightAware
06:36AM 22.3030 116.2630 267° West 411 473 35,600  Level FlightAware
06:36AM 22.3010 116.1930 268° West 411 473 35,600  Level FlightAware
06:37AM 22.2990 116.1230 268° West 411 473 35,600  Level FlightAware
06:38AM 22.2970 116.0530 268° West 411 473 35,600  Level FlightAware
06:38AM 22.2940 115.9830 267° West 411 473 35,600  Level FlightAware
06:39AM 22.2910 115.8960 268° West 411 473 35,600  Level FlightAware
06:40AM 22.2890 115.8260 268° West 411 473 35,600  Level FlightAware
06:41AM 22.2870 115.7560 268° West 411 473 35,600 -1,800 Level FlightAware
06:43AM 22.3167 115.5005 270° West  Level FlightAware Approximate
06:44AM 22.3168 115.3717 270° West  Level FlightAware Approximate
06:45AM 22.3168 115.2429 270° West  Level FlightAware Approximate
06:46AM 22.3167 115.1140 270° West  Level FlightAware Approximate
06:47AM 22.3167 114.9852 270° West  Level FlightAware Approximate
06:48AM 22.3167 114.8563 270° West  Level FlightAware Approximate
06:49AM 22.3167 114.7274 270° West  Level FlightAware Approximate
06:50AM 22.3167 114.5986 270° West  Level FlightAware Approximate
06:51AM 22.3167 114.4697 270° West  Level FlightAware Approximate
06:52AM 22.3167 114.3409 270° West  Level FlightAware Approximate
06:53AM 22.3167 114.2120 270° West  Level FlightAware Approximate
06:54AM 22.3167 114.2000 270° West  Level FlightAware Approximate
06:54AM 22.2510 114.3830 270° West 319 367 11,300  Level FlightAware
06:54AM 22.2480 114.3280 267° West 319 367 11,300  Level FlightAware
06:55AM 22.2460 114.2740 268° West 319 367 11,300 -960 Level FlightAware
06:58AM 22.3167 114.2000 270° West  Level FlightAware Approximate
06:59AM 22.3132 114.0712 270° West  Level Estimated
06:59AM 22.1160 113.9440 270° West 244 281 7,200  Level FlightAware
06:59AM 22.1060 113.9190 247° West 244 281 7,200 -780 Level FlightAware
07:02AM 22.3089 113.9146 359° North  Level Estimated
07:03AM 22.3089 113.9146 110° East  Level Estimated
07:04AM 22.3089 113.9146 110° East  Level Estimated
07:05AM 22.3089 113.9146 110° East  Level Estimated
07:06AM 22.3089 113.9146 110° East  Level Estimated
07:07AM 22.3089 113.9146 110° East  Level Estimated
07:07AM 22.3020 113.8710 110° East 144 166 600  Level FlightAware
07:08AM 22.3089 113.9146 110° East  Level Estimated
07:08AM 22.3110 113.8970 69° East 143 165 200  Level FlightAware